createdAt,value
2023-04-11T00:00:03.442Z,96926.00
2023-04-11T00:02:34.860Z,96935.00
2023-04-11T00:05:04.521Z,96937.09
2023-04-11T00:07:32.880Z,96922.75
2023-04-11T00:10:00.867Z,96926.53
2023-04-11T00:12:28.857Z,96929.34
2023-04-11T00:14:56.859Z,96909.50
2023-04-11T00:17:25.092Z,96922.19
2023-04-11T00:19:53.972Z,96931.19
2023-04-11T00:22:24.475Z,96928.09
2023-04-11T00:24:53.137Z,96929.06
2023-04-11T00:27:21.983Z,96923.16
2023-04-11T00:29:50.013Z,96905.13
2023-04-11T00:32:18.003Z,96920.34
2023-04-11T00:34:46.246Z,96923.44
2023-04-11T00:37:14.223Z,96925.00
2023-04-11T00:39:45.110Z,96899.56
2023-04-11T00:42:13.024Z,96898.69
2023-04-11T00:44:40.991Z,96914.16
2023-04-11T00:47:08.961Z,96896.31
2023-04-11T00:49:36.973Z,96900.25
2023-04-11T00:52:05.862Z,96896.16
2023-04-11T00:54:33.973Z,96888.16
2023-04-11T00:57:04.206Z,96887.88
2023-04-11T00:59:32.911Z,96896.59
2023-04-11T01:02:01.581Z,96903.47
2023-04-11T01:04:30.727Z,96902.31
2023-04-11T01:07:01.900Z,96896.72
2023-04-11T01:09:29.863Z,96892.81
2023-04-11T01:11:57.825Z,96891.25
2023-04-11T01:14:27.088Z,96896.75
2023-04-11T01:16:56.564Z,96888.59
2023-04-11T01:19:26.170Z,96884.94
2023-04-11T01:21:54.458Z,96884.94
2023-04-11T01:24:23.822Z,96878.03
2023-04-11T01:26:52.194Z,96865.94
2023-04-11T01:29:20.221Z,96879.44
2023-04-11T01:31:48.205Z,96867.34
2023-04-11T01:34:17.828Z,96867.34
2023-04-11T01:36:45.935Z,96864.97
2023-04-11T01:39:13.916Z,96858.91
2023-04-11T01:41:43.650Z,96861.00
2023-04-11T01:44:11.676Z,96867.06
2023-04-11T01:46:39.653Z,96859.06
2023-04-11T01:49:07.922Z,96859.31
2023-04-11T01:51:36.272Z,96845.84
2023-04-11T01:54:04.310Z,96850.91
2023-04-11T01:56:32.569Z,96850.44
2023-04-11T01:59:01.906Z,96839.06
2023-04-11T02:01:29.906Z,96858.31
2023-04-11T02:03:58.231Z,96867.44
2023-04-11T02:06:27.515Z,96864.53
2023-04-11T02:08:55.821Z,96862.56
2023-04-11T02:11:24.170Z,96857.91
2023-04-11T02:13:52.909Z,96861.56
2023-04-11T02:16:26.045Z,96876.75
2023-04-11T02:18:54.972Z,96859.91
2023-04-11T02:21:23.093Z,96863.81
2023-04-11T02:23:51.048Z,96871.00
2023-04-11T02:26:19.035Z,96869.59
2023-04-11T02:28:46.940Z,96864.81
2023-04-11T02:31:14.959Z,96864.06
2023-04-11T02:33:44.346Z,96867.19
2023-04-11T02:36:12.625Z,96862.13
2023-04-11T02:38:40.715Z,96862.97
2023-04-11T02:41:09.104Z,96857.63
2023-04-11T02:43:36.976Z,96863.13
2023-04-11T02:46:12.793Z,96869.56
2023-04-11T02:48:41.184Z,96872.06
2023-04-11T02:51:10.915Z,96878.84
2023-04-11T02:53:38.831Z,96882.75
2023-04-11T02:56:07.862Z,96886.44
2023-04-11T02:58:39.027Z,96882.34
2023-04-11T03:01:08.061Z,96887.41
2023-04-11T03:03:36.071Z,96891.03
2023-04-11T03:06:04.573Z,96893.72
2023-04-11T03:08:35.854Z,96885.00
2023-04-11T03:11:03.942Z,96892.91
2023-04-11T03:13:31.903Z,96898.66
2023-04-11T03:15:59.881Z,96887.88
2023-04-11T03:18:27.890Z,96895.53
2023-04-11T03:20:56.566Z,96886.91
2023-04-11T03:23:24.517Z,96908.59
2023-04-11T03:25:53.874Z,96897.31
2023-04-11T03:28:23.290Z,96901.06
2023-04-11T03:30:51.311Z,96904.38
2023-04-11T03:33:19.321Z,96904.97
2023-04-11T03:35:47.302Z,96906.81
2023-04-11T03:38:15.266Z,96897.94
2023-04-11T03:40:43.224Z,96907.22
2023-04-11T03:43:12.816Z,96901.06
2023-04-11T03:45:40.729Z,96904.16
2023-04-11T03:48:08.658Z,96901.56
2023-04-11T03:50:36.635Z,96905.94
2023-04-11T03:53:04.601Z,96911.94
2023-04-11T03:55:32.615Z,96910.22
2023-04-11T03:58:00.550Z,96914.28
2023-04-11T04:00:30.365Z,96921.00
2023-04-11T04:02:58.479Z,96918.25
2023-04-11T04:05:27.096Z,96930.63
2023-04-11T04:07:56.040Z,96923.94
2023-04-11T04:10:24.129Z,96928.16
2023-04-11T04:12:52.537Z,96935.09
2023-04-11T04:15:21.480Z,96938.81
2023-04-11T04:17:50.878Z,96930.69
2023-04-11T04:20:19.054Z,96926.91
2023-04-11T04:22:47.861Z,96914.78
2023-04-11T04:25:15.970Z,96918.56
2023-04-11T04:27:46.617Z,96936.25
2023-04-11T04:30:15.833Z,96913.34
2023-04-11T04:32:45.109Z,96915.84
2023-04-11T04:35:16.899Z,96919.81
2023-04-11T04:37:46.610Z,96910.25
2023-04-11T04:40:15.959Z,96929.22
2023-04-11T04:42:44.080Z,96926.47
2023-04-11T04:45:12.195Z,96936.69
2023-04-11T04:47:40.354Z,96936.38
2023-04-11T04:50:09.355Z,96930.69
2023-04-11T04:52:38.964Z,96941.00
2023-04-11T04:55:07.541Z,96947.19
2023-04-11T04:57:35.491Z,96944.38
2023-04-11T05:00:06.947Z,96945.63
2023-04-11T05:02:35.169Z,96951.94
2023-04-11T05:05:04.511Z,96957.91
2023-04-11T05:07:32.720Z,96960.66
2023-04-11T05:10:02.078Z,96956.59
2023-04-11T05:12:30.052Z,96964.47
2023-04-11T05:14:58.035Z,96983.22
2023-04-11T05:17:27.802Z,96974.69
2023-04-11T05:19:55.816Z,96994.31
2023-04-11T05:22:23.746Z,96990.88
2023-04-11T05:24:51.800Z,96983.72
2023-04-11T05:27:22.033Z,96992.38
2023-04-11T05:29:50.001Z,96990.63
2023-04-11T05:32:17.963Z,96991.06
2023-04-11T05:34:52.648Z,96997.34
2023-04-11T05:37:20.915Z,96981.38
2023-04-11T05:39:48.893Z,96999.63
2023-04-11T05:42:18.631Z,96995.72
2023-04-11T05:44:48.047Z,96996.06
2023-04-11T05:47:15.923Z,97004.44
2023-04-11T05:49:44.364Z,97005.50
2023-04-11T05:52:12.604Z,97012.75
2023-04-11T05:54:40.977Z,97005.06
2023-04-11T05:57:08.898Z,97018.13
2023-04-11T05:59:36.795Z,97025.19
2023-04-11T06:02:06.799Z,97030.00
2023-04-11T06:04:35.008Z,97023.78
2023-04-11T06:07:04.396Z,97027.31
2023-04-11T06:09:34.076Z,97029.81
2023-04-11T06:12:02.529Z,97026.88
2023-04-11T06:14:30.413Z,97030.50
2023-04-11T06:16:58.303Z,97031.44
2023-04-11T06:19:27.657Z,97043.31
2023-04-11T06:21:55.836Z,97028.00
2023-04-11T06:24:35.851Z,97046.81
2023-04-11T06:27:04.589Z,97045.97
2023-04-11T06:29:32.578Z,97049.91
2023-04-11T06:32:00.530Z,97048.00
2023-04-11T06:34:30.296Z,97057.84
2023-04-11T06:36:58.279Z,97060.59
2023-04-11T06:39:26.257Z,97067.41
2023-04-11T06:41:54.412Z,97067.53
2023-04-11T06:44:22.411Z,97078.31
2023-04-11T06:46:50.410Z,97099.00
2023-04-11T06:49:19.002Z,97097.41
2023-04-11T06:51:50.070Z,97101.50
2023-04-11T06:54:18.181Z,97106.56
2023-04-11T06:56:46.449Z,97103.22
2023-04-11T06:59:16.974Z,97103.22
2023-04-11T07:01:48.412Z,97113.56
2023-04-11T07:04:16.673Z,97097.91
2023-04-11T07:06:45.081Z,97104.28
2023-04-11T07:09:14.730Z,97104.69
2023-04-11T07:11:42.736Z,97103.91
2023-04-11T07:14:10.652Z,97110.75
2023-04-11T07:16:38.932Z,97099.34
2023-04-11T07:19:06.974Z,97098.53
2023-04-11T07:21:35.183Z,97105.16
2023-04-11T07:24:03.166Z,97096.09
2023-04-11T07:26:33.089Z,97099.56
2023-04-11T07:29:01.325Z,97105.16
2023-04-11T07:31:29.289Z,97113.50
2023-04-11T07:33:57.417Z,97104.91
2023-04-11T07:36:26.705Z,97107.31
2023-04-11T07:38:54.592Z,97096.81
2023-04-11T07:41:22.709Z,97105.44
2023-04-11T07:43:52.378Z,97101.72
2023-04-11T07:46:20.632Z,97102.44
2023-04-11T07:48:48.541Z,97105.88
2023-04-11T07:51:17.033Z,97101.00
2023-04-11T07:53:45.011Z,97101.22
2023-04-11T07:56:13.605Z,97100.66
2023-04-11T07:58:42.017Z,97108.63
2023-04-11T08:01:22.650Z,97100.84
2023-04-11T08:03:50.813Z,97098.69
2023-04-11T08:06:19.225Z,97096.31
2023-04-11T08:08:47.749Z,97101.38
2023-04-11T08:11:15.635Z,97102.81
2023-04-11T08:13:43.826Z,97107.81
2023-04-11T08:16:15.015Z,97103.97
2023-04-11T08:18:45.626Z,97105.69
2023-04-11T08:21:13.709Z,97103.03
2023-04-11T08:23:42.599Z,97109.03
2023-04-11T08:26:11.960Z,97108.84
2023-04-11T08:28:42.638Z,97113.66
2023-04-11T08:31:13.244Z,97113.53
2023-04-11T08:33:41.689Z,97097.53
2023-04-11T08:36:11.943Z,97106.53
2023-04-11T08:38:40.388Z,97108.63
2023-04-11T08:41:08.399Z,97117.22
2023-04-11T08:43:36.394Z,97116.28
2023-04-11T08:46:09.080Z,97117.81
2023-04-11T08:48:40.094Z,97117.19
2023-04-11T08:51:13.914Z,97122.06
2023-04-11T08:53:41.971Z,97116.00
2023-04-11T08:56:15.697Z,97116.44
2023-04-11T08:58:43.996Z,97121.94
2023-04-11T09:01:32.296Z,97124.03
2023-04-11T09:04:01.256Z,97126.16
2023-04-11T09:06:32.805Z,97125.44
2023-04-11T09:09:00.900Z,97118.59
2023-04-11T09:11:29.468Z,97118.69
2023-04-11T09:14:07.831Z,97126.03
2023-04-11T09:16:35.892Z,97123.06
2023-04-11T09:19:04.304Z,97119.09
2023-04-11T09:21:34.907Z,97115.75
2023-04-11T09:24:18.642Z,97120.66
2023-04-11T09:26:47.009Z,97127.00
2023-04-11T09:29:24.274Z,97136.44
2023-04-11T09:32:00.219Z,97128.91
2023-04-11T09:34:41.212Z,97124.53
2023-04-11T09:37:18.846Z,97111.69
2023-04-11T09:39:50.880Z,97114.50
2023-04-11T09:42:31.543Z,97115.75
2023-04-11T09:45:04.696Z,97118.09
2023-04-11T09:47:44.861Z,97108.59
2023-04-11T09:50:13.887Z,97120.41
2023-04-11T09:52:44.537Z,97116.91
2023-04-11T09:55:13.687Z,97119.72
2023-04-11T09:57:45.630Z,97126.41
2023-04-11T10:00:20.516Z,97122.53
2023-04-11T10:02:56.422Z,97128.19
2023-04-11T10:05:32.296Z,97124.88
2023-04-11T10:08:04.792Z,97113.38
2023-04-11T10:10:33.068Z,97118.81
2023-04-11T10:13:01.060Z,97112.75
2023-04-11T10:15:30.086Z,97123.25
2023-04-11T10:18:10.561Z,97125.81
2023-04-11T10:20:46.182Z,97124.13
2023-04-11T10:23:16.475Z,97135.09
2023-04-11T10:25:55.255Z,97123.31
2023-04-11T10:28:33.659Z,97129.03
2023-04-11T10:31:13.991Z,97129.59
2023-04-11T10:33:42.108Z,97122.00
2023-04-11T10:36:11.235Z,97128.72
2023-04-11T10:38:50.639Z,97126.13
2023-04-11T10:41:28.840Z,97115.78
2023-04-11T10:44:20.910Z,97138.16
2023-04-11T10:46:51.679Z,97146.81
2023-04-11T10:49:36.372Z,97136.28
2023-04-11T10:52:24.546Z,97139.19
2023-04-11T10:54:55.174Z,97141.03
2023-04-11T10:57:25.676Z,97145.34
2023-04-11T11:00:12.165Z,97136.47
2023-04-11T11:02:41.189Z,97140.00
2023-04-11T11:05:19.415Z,97148.09
2023-04-11T11:07:48.820Z,97149.78
2023-04-11T11:10:35.232Z,97148.00
2023-04-11T11:13:04.165Z,97143.47
2023-04-11T11:15:36.523Z,97157.72
2023-04-11T11:18:06.345Z,97145.16
2023-04-11T11:20:34.382Z,97152.63
2023-04-11T11:23:02.904Z,97160.47
2023-04-11T11:25:34.445Z,97152.03
2023-04-11T11:28:03.415Z,97156.84
2023-04-11T11:30:32.008Z,97163.91
2023-04-11T11:33:00.953Z,97166.72
2023-04-11T11:35:29.103Z,97167.06
2023-04-11T11:37:57.296Z,97163.69
2023-04-11T11:40:25.273Z,97166.03
2023-04-11T11:42:54.513Z,97160.09
2023-04-11T11:45:23.533Z,97171.56
2023-04-11T11:47:51.674Z,97170.81
2023-04-11T11:50:27.799Z,97167.13
2023-04-11T11:52:56.648Z,97157.56
2023-04-11T11:55:34.359Z,97161.50
2023-04-11T11:58:03.886Z,97154.50
2023-04-11T12:00:33.221Z,97160.25
2023-04-11T12:03:01.773Z,97146.88
2023-04-11T12:05:33.324Z,97147.19
2023-04-11T12:08:02.678Z,97147.78
2023-04-11T12:10:38.526Z,97150.22
2023-04-11T12:13:14.612Z,97153.66
2023-04-11T12:15:44.594Z,97137.09
2023-04-11T12:18:12.515Z,97148.25
2023-04-11T12:20:41.505Z,97145.41
2023-04-11T12:23:09.733Z,97148.34
2023-04-11T12:25:37.769Z,97148.84
2023-04-11T12:28:10.478Z,97161.25
2023-04-11T12:30:40.074Z,97160.91
2023-04-11T12:33:08.095Z,97160.59
2023-04-11T12:35:36.192Z,97158.94
2023-04-11T12:38:08.025Z,97165.66
2023-04-11T12:40:42.529Z,97169.44
2023-04-11T12:43:15.974Z,97172.38
2023-04-11T12:45:45.902Z,97174.38
2023-04-11T12:48:13.889Z,97165.69
2023-04-11T12:50:42.091Z,97170.38
2023-04-11T12:53:10.063Z,97167.69
2023-04-11T12:55:38.213Z,97168.91
2023-04-11T12:58:08.043Z,97170.28
2023-04-11T13:00:35.943Z,97169.19
2023-04-11T13:03:06.154Z,97162.91
2023-04-11T13:05:34.327Z,97163.97
2023-04-11T13:08:02.711Z,97161.91
2023-04-11T13:10:34.399Z,97156.69
2023-04-11T13:13:17.377Z,97156.75
2023-04-11T13:15:47.451Z,97165.50
2023-04-11T13:18:16.849Z,97161.38
2023-04-11T13:20:44.933Z,97170.53
2023-04-11T13:23:14.853Z,97159.34
2023-04-11T13:25:45.854Z,97170.31
2023-04-11T13:28:15.289Z,97174.19
2023-04-11T13:30:43.589Z,97173.34
2023-04-11T13:33:11.566Z,97163.19
2023-04-11T13:35:40.939Z,97162.66
2023-04-11T13:38:11.100Z,97161.28
2023-04-11T13:40:39.560Z,97162.59
2023-04-11T13:43:07.433Z,97173.22
2023-04-11T13:45:35.455Z,97170.63
2023-04-11T13:48:03.494Z,97176.88
2023-04-11T13:50:31.623Z,97180.84
2023-04-11T13:53:01.340Z,97172.63
2023-04-11T13:55:29.245Z,97170.63
2023-04-11T13:57:57.167Z,97169.75
2023-04-11T14:00:25.220Z,97173.06
2023-04-11T14:02:53.380Z,97167.16
2023-04-11T14:05:21.633Z,97162.31
2023-04-11T14:07:49.865Z,97164.38
2023-04-11T14:10:19.329Z,97162.94
2023-04-11T14:12:47.366Z,97160.16
2023-04-11T14:15:15.323Z,97153.50
2023-04-11T14:17:44.039Z,97152.66
2023-04-11T14:20:12.542Z,97149.66
2023-04-11T14:22:40.991Z,97153.94
2023-04-11T14:25:11.082Z,97147.34
2023-04-11T14:27:40.665Z,97157.56
2023-04-11T14:30:10.053Z,97147.41
2023-04-11T14:32:38.153Z,97138.66
2023-04-11T14:35:08.275Z,97148.78
2023-04-11T14:37:36.582Z,97148.41
2023-04-11T14:40:05.071Z,97140.84
2023-04-11T14:42:33.384Z,97139.69
2023-04-11T14:45:03.181Z,97132.50
2023-04-11T14:47:31.094Z,97145.19
2023-04-11T14:49:59.105Z,97136.81
2023-04-11T14:52:27.292Z,97135.47
2023-04-11T14:54:55.243Z,97131.78
2023-04-11T14:57:23.553Z,97128.53
2023-04-11T14:59:51.467Z,97134.72
2023-04-11T15:02:21.089Z,97137.72
2023-04-11T15:04:49.359Z,97135.81
2023-04-11T15:07:17.612Z,97135.03
2023-04-11T15:09:46.231Z,97134.41
2023-04-11T15:12:14.476Z,97139.13
2023-04-11T15:14:42.407Z,97128.50
2023-04-11T15:17:10.906Z,97139.88
2023-04-11T15:19:40.472Z,97148.25
2023-04-11T15:22:08.655Z,97129.97
2023-04-11T15:24:36.571Z,97133.13
2023-04-11T15:27:04.655Z,97146.00
2023-04-11T15:29:32.979Z,97133.66
2023-04-11T15:32:03.161Z,97128.50
2023-04-11T15:34:31.141Z,97141.56
2023-04-11T15:37:00.814Z,97138.41
2023-04-11T15:39:28.844Z,97136.97
2023-04-11T15:41:57.154Z,97135.34
2023-04-11T15:44:25.074Z,97135.88
2023-04-11T15:46:53.282Z,97137.31
2023-04-11T15:49:21.217Z,97125.28
2023-04-11T15:51:49.174Z,97125.75
2023-04-11T15:54:18.822Z,97132.00
2023-04-11T15:56:46.808Z,97124.47
2023-04-11T15:59:16.138Z,97122.38
2023-04-11T16:01:44.737Z,97118.97
2023-04-11T16:04:12.864Z,97113.41
2023-04-11T16:06:40.837Z,97119.50
2023-04-11T16:09:09.019Z,97119.53
2023-04-11T16:11:39.907Z,97117.84
2023-04-11T16:14:07.794Z,97113.66
2023-04-11T16:16:40.541Z,97115.81
2023-04-11T16:19:08.512Z,97102.84
2023-04-11T16:21:36.726Z,97107.72
2023-04-11T16:24:05.143Z,97106.03
2023-04-11T16:26:33.383Z,97098.78
2023-04-11T16:29:03.266Z,97092.50
2023-04-11T16:31:32.100Z,97096.06
2023-04-11T16:34:00.155Z,97095.44
2023-04-11T16:36:31.764Z,97102.50
2023-04-11T16:39:09.038Z,97099.31
2023-04-11T16:41:37.359Z,97091.38
2023-04-11T16:44:11.206Z,97101.66
2023-04-11T16:46:39.229Z,97096.66
2023-04-11T16:49:08.741Z,97097.50
2023-04-11T16:51:36.961Z,97097.34
2023-04-11T16:54:09.609Z,97093.09
2023-04-11T16:56:37.603Z,97103.94
2023-04-11T16:59:06.947Z,97096.78
2023-04-11T17:01:34.824Z,97098.50
2023-04-11T17:04:02.833Z,97108.06
2023-04-11T17:06:31.523Z,97097.13
2023-04-11T17:08:59.502Z,97104.72
2023-04-11T17:11:29.385Z,97099.75
2023-04-11T17:13:57.834Z,97099.69
2023-04-11T17:16:27.311Z,97104.97
2023-04-11T17:18:56.242Z,97099.16
2023-04-11T17:21:24.183Z,97109.34
2023-04-11T17:23:52.143Z,97113.56
2023-04-11T17:26:20.411Z,97110.28
2023-04-11T17:28:48.307Z,97110.69
2023-04-11T17:31:17.347Z,97117.94
2023-04-11T17:33:48.113Z,97113.22
2023-04-11T17:36:16.077Z,97107.88
2023-04-11T17:38:44.669Z,97109.25
2023-04-11T17:41:15.171Z,97104.31
2023-04-11T17:43:43.623Z,97095.63
2023-04-11T17:46:12.498Z,97099.94
2023-04-11T17:48:40.788Z,97091.97
2023-04-11T17:51:10.098Z,97094.25
2023-04-11T17:53:38.126Z,97091.63
2023-04-11T17:56:07.156Z,97089.75
2023-04-11T17:58:35.427Z,97083.91
2023-04-11T18:01:04.553Z,97079.81
2023-04-11T18:03:35.152Z,97086.75
2023-04-11T18:06:04.000Z,97080.19
2023-04-11T18:08:49.969Z,97080.97
2023-04-11T18:11:20.907Z,97072.97
2023-04-11T18:13:50.441Z,97078.72
2023-04-11T18:16:18.716Z,97076.38
2023-04-11T18:18:47.378Z,97069.59
2023-04-11T18:21:16.083Z,97077.47
2023-04-11T18:23:45.395Z,97078.75
2023-04-11T18:26:13.354Z,97075.69
2023-04-11T18:28:41.184Z,97073.25
2023-04-11T18:31:09.536Z,97076.38
2023-04-11T18:33:41.922Z,97065.69
2023-04-11T18:36:12.049Z,97065.28
2023-04-11T18:38:40.393Z,97056.13
2023-04-11T18:41:10.240Z,97057.50
2023-04-11T18:43:39.059Z,97057.25
2023-04-11T18:46:09.614Z,97054.84
2023-04-11T18:48:37.681Z,97056.28
2023-04-11T18:51:06.599Z,97054.44
2023-04-11T18:53:36.600Z,97054.59
2023-04-11T18:56:04.961Z,97049.09
2023-04-11T18:58:38.484Z,97058.69
2023-04-11T19:01:15.363Z,97056.28
2023-04-11T19:03:44.478Z,97065.81
2023-04-11T19:06:13.114Z,97054.53
2023-04-11T19:08:41.617Z,97057.09
2023-04-11T19:11:09.587Z,97047.22
2023-04-11T19:13:38.974Z,97046.09
2023-04-11T19:16:07.645Z,97046.22
2023-04-11T19:18:35.723Z,97050.31
2023-04-11T19:21:03.791Z,97052.16
2023-04-11T19:23:31.958Z,97050.03
2023-04-11T19:26:00.766Z,97045.09
2023-04-11T19:28:28.666Z,97053.41
2023-04-11T19:30:57.980Z,97049.75
2023-04-11T19:33:26.152Z,97038.06
2023-04-11T19:35:54.272Z,97043.38
2023-04-11T19:38:22.481Z,97045.59
2023-04-11T19:40:50.808Z,97040.84
2023-04-11T19:43:19.751Z,97037.44
2023-04-11T19:45:47.797Z,97031.81
2023-04-11T19:48:17.933Z,97030.50
2023-04-11T19:50:45.883Z,97030.38
2023-04-11T19:53:13.767Z,97025.28
2023-04-11T19:55:41.911Z,97023.19
2023-04-11T19:58:09.927Z,97015.91
2023-04-11T20:00:38.724Z,97008.72
2023-04-11T20:03:07.945Z,97014.47
2023-04-11T20:05:37.877Z,97020.13
2023-04-11T20:08:05.789Z,97013.91
2023-04-11T20:10:34.207Z,97002.53
2023-04-11T20:13:02.407Z,96995.19
2023-04-11T20:15:30.479Z,96996.91
2023-04-11T20:17:58.785Z,96990.44
2023-04-11T20:20:27.994Z,96980.59
2023-04-11T20:22:57.345Z,96982.50
2023-04-11T20:25:25.379Z,96981.97
2023-04-11T20:27:53.481Z,96980.28
2023-04-11T20:30:21.889Z,96976.66
2023-04-11T20:32:50.075Z,96967.19
2023-04-11T20:35:19.317Z,96969.03
2023-04-11T20:37:49.877Z,96960.00
2023-04-11T20:40:19.308Z,96955.22
2023-04-11T20:42:47.563Z,96955.63
2023-04-11T20:45:16.325Z,96940.16
2023-04-11T20:47:45.971Z,96934.41
2023-04-11T20:50:14.717Z,96930.50
2023-04-11T20:52:43.403Z,96940.16
2023-04-11T20:55:11.750Z,96927.66
2023-04-11T20:57:41.059Z,96925.69
2023-04-11T21:00:13.999Z,96929.44
2023-04-11T21:02:44.112Z,96922.13
2023-04-11T21:05:12.997Z,96924.22
2023-04-11T21:07:41.477Z,96920.56
2023-04-11T21:10:10.384Z,96928.56
2023-04-11T21:12:38.409Z,96916.06
2023-04-11T21:15:09.140Z,96917.28
2023-04-11T21:17:39.445Z,96910.03
2023-04-11T21:20:11.108Z,96899.94
2023-04-11T21:22:40.268Z,96898.75
2023-04-11T21:25:10.146Z,96893.75
2023-04-11T21:27:41.452Z,96895.97
2023-04-11T21:30:11.870Z,96884.72
2023-04-11T21:32:39.923Z,96881.22
2023-04-11T21:35:09.448Z,96882.34
2023-04-11T21:37:37.478Z,96881.50
2023-04-11T21:40:06.217Z,96877.59
2023-04-11T21:42:34.267Z,96877.72
2023-04-11T21:45:02.213Z,96881.53
2023-04-11T21:47:31.574Z,96874.75
2023-04-11T21:49:59.497Z,96873.34
2023-04-11T21:52:27.460Z,96869.16
2023-04-11T21:54:55.325Z,96861.16
2023-04-11T21:57:23.223Z,96869.00
2023-04-11T21:59:51.165Z,96862.13
2023-04-11T22:02:19.679Z,96860.88
2023-04-11T22:05:04.816Z,96854.72
2023-04-11T22:07:39.058Z,96853.13
2023-04-11T22:10:10.558Z,96849.47
2023-04-11T22:12:38.505Z,96846.94
2023-04-11T22:15:07.757Z,96838.22
2023-04-11T22:17:37.341Z,96835.88
2023-04-11T22:20:09.256Z,96838.94
2023-04-11T22:22:38.691Z,96838.50
2023-04-11T22:25:08.385Z,96830.53
2023-04-11T22:27:36.287Z,96818.97
2023-04-11T22:30:05.880Z,96814.59
2023-04-11T22:32:34.588Z,96815.31
2023-04-11T22:35:02.720Z,96807.31
2023-04-11T22:37:32.091Z,96801.69
2023-04-11T22:39:59.931Z,96795.78
2023-04-11T22:42:27.817Z,96799.69
2023-04-11T22:44:55.697Z,96783.28
2023-04-11T22:47:23.672Z,96782.13
2023-04-11T22:49:51.629Z,96770.47
2023-04-11T22:52:24.290Z,96760.75
2023-04-11T22:54:53.724Z,96759.78
2023-04-11T22:57:21.713Z,96757.25
2023-04-11T22:59:49.891Z,96747.28
2023-04-11T23:02:17.991Z,96739.84
2023-04-11T23:04:46.458Z,96747.41
2023-04-11T23:07:14.381Z,96743.63
2023-04-11T23:09:42.660Z,96742.78
2023-04-11T23:12:12.155Z,96732.53
2023-04-11T23:14:40.042Z,96735.75
2023-04-11T23:17:08.383Z,96732.53
2023-04-11T23:19:36.979Z,96715.66
2023-04-11T23:22:06.444Z,96724.09
2023-04-11T23:24:34.412Z,96714.97
2023-04-11T23:27:02.692Z,96715.09
2023-04-11T23:29:31.974Z,96708.06
2023-04-11T23:31:59.913Z,96706.09
2023-04-11T23:34:27.914Z,96703.31
2023-04-11T23:36:57.530Z,96696.69
2023-04-11T23:39:26.467Z,96688.13
2023-04-11T23:41:54.694Z,96676.47
2023-04-11T23:44:22.650Z,96666.44
2023-04-11T23:46:52.005Z,96667.63
2023-04-11T23:49:19.901Z,96665.94
2023-04-11T23:51:48.357Z,96654.53
2023-04-11T23:54:16.411Z,96648.63
2023-04-11T23:56:44.895Z,96646.25
2023-04-11T23:59:13.133Z,96646.53
